Toquerville, Utah
Current Conditions -  °F | °C
As of 1:55 AM on Sunday 23 Nov 2014 (Local Time) from KSGU Reporting Station
Clear Clear  
Wind Chill: 54°   Ceiling: Unl
Heat Index: 54°   Visibility: 10mi
Dew Point: 27°   Wind: 14mph
Humidity: 35%   Direction: 280°W
Pressure: 29.99"   Gusts: NA
Location:  37.25°N, 113.28°W
Report Text: KSGU 230855Z AUTO 28012KT 10SM CLR 12/M03 A2999 RMK AO1 52024
Loading
Personal Weather Stations






























Interactive Weather Map New forecast layout! Learn more

10-Day Weather Forecast

Advertisements
Track Severe Weather on mobile